Time;durP1;ratioP1;P1;durP2;ratioP2;P2;SDS_P1;SDS_P2;PMS_P1;PMS_P2;Temp;Humidity;BMP_temperature;BMP_pressure;BME280_temperature;BME280_humidity;BME280_pressure;Samples;Min_cycle;Max_cycle;Signal;HPM_P1;HPM_P2
2022/01/13 00:01:39;;;;;;;;;96.67;79.67;;;;;;;;5094835;28;8806;-76
2022/01/13 00:04:04;;;;;;;;;90.20;72.00;;;;;;;;5094838;28;8797;-76
2022/01/13 00:06:30;;;;;;;;;82.00;66.75;;;;;;;;5094669;28;8908;-76
2022/01/13 00:08:55;;;;;;;;;86.67;69.00;;;;;;;;5093438;28;8903;-76
2022/01/13 00:11:20;;;;;;;;;88.33;70.33;;;;;;;;5094533;28;8898;-76
2022/01/13 00:13:51;;;;;;;;;93.00;72.33;;;;;;;;5087707;28;9412;-76
2022/01/13 00:18:50;;;;;;;;;84.60;69.00;;;;;;;;5095037;28;8774;-75
2022/01/13 00:21:31;;;;;;;;;88.60;71.00;;;;;;;;5095457;28;8806;-76
2022/01/13 00:24:00;;;;;;;;;95.25;79.00;;;;;;;;5091204;28;8823;-76
2022/01/13 00:26:27;;;;;;;;;88.20;71.40;;;;;;;;5095805;28;8879;-76
2022/01/13 00:28:53;;;;;;;;;89.75;69.50;;;;;;;;5095089;28;8777;-76
2022/01/13 00:31:25;;;;;;;;;91.75;78.00;;;;;;;;5095313;28;8817;-76
2022/01/13 00:33:54;;;;;;;;;89.50;72.25;;;;;;;;5093773;28;8826;-76
2022/01/13 00:36:20;;;;;;;;;90.25;72.00;;;;;;;;5094810;28;8948;-76
2022/01/13 00:38:45;;;;;;;;;89.00;70.00;;;;;;;;5094603;28;8839;-76
2022/01/13 00:41:10;;;;;;;;;93.00;74.33;;;;;;;;5094897;28;8817;-76
2022/01/13 00:43:39;;;;;;;;;88.00;71.25;;;;;;;;5093669;28;8938;-76
2022/01/13 00:46:05;;;;;;;;;76.25;61.50;;;;;;;;5093033;28;9744;-76
2022/01/13 00:48:30;;;;;;;;;81.00;64.25;;;;;;;;5093857;28;8818;-76
2022/01/13 00:50:56;;;;;;;;;81.50;66.00;;;;;;;;5092625;28;8790;-76
2022/01/13 00:53:21;;;;;;;;;97.33;83.00;;;;;;;;5093888;28;8960;-74
2022/01/13 00:55:58;;;;;;;;;91.33;73.33;;;;;;;;5093436;28;9066;-74
2022/01/13 00:58:24;;;;;;;;;93.50;77.25;;;;;;;;5095238;28;8817;-74
2022/01/13 01:00:49;;;;;;;;;97.80;84.00;;;;;;;;5093643;28;9739;-74
2022/01/13 01:03:14;;;;;;;;;82.25;67.75;;;;;;;;5095018;28;9009;-74
2022/01/13 01:05:40;;;;;;;;;90.50;72.25;;;;;;;;5093349;28;8867;-74
2022/01/13 01:08:06;;;;;;;;;86.75;71.00;;;;;;;;5093056;28;9648;-74
2022/01/13 01:10:32;;;;;;;;;93.00;77.75;;;;;;;;5095088;28;8890;-74
2022/01/13 01:12:58;;;;;;;;;92.67;74.00;;;;;;;;5094391;28;8805;-74
2022/01/13 01:15:24;;;;;;;;;96.25;83.50;;;;;;;;5094449;28;8812;-74
2022/01/13 01:17:56;;;;;;;;;94.50;78.25;;;;;;;;5093844;28;8814;-74
2022/01/13 01:20:28;;;;;;;;;101.75;90.00;;;;;;;;5092831;28;8809;-74
2022/01/13 01:23:04;;;;;;;;;87.20;70.60;;;;;;;;5094179;28;8846;-74
2022/01/13 01:27:58;;;;;;;;;100.00;89.25;;;;;;;;5093292;28;8856;-74
2022/01/13 01:32:49;;;;;;;;;100.33;87.33;;;;;;;;5093856;28;8871;-74
2022/01/13 01:35:16;;;;;;;;;91.25;74.50;;;;;;;;5094378;28;8905;-74
2022/01/13 01:37:42;;;;;;;;;104.50;100.00;;;;;;;;5093652;28;8924;-74
2022/01/13 01:40:09;;;;;;;;;102.80;93.00;;;;;;;;5094203;28;8868;-74
2022/01/13 01:42:34;;;;;;;;;101.00;88.00;;;;;;;;5094186;28;9886;-74
2022/01/13 01:45:01;;;;;;;;;100.00;88.67;;;;;;;;5092257;28;8856;-74
2022/01/13 01:47:28;;;;;;;;;97.00;84.75;;;;;;;;5092810;28;8768;-75
2022/01/13 01:49:56;;;;;;;;;90.25;74.00;;;;;;;;5093449;28;8904;-74
2022/01/13 01:52:22;;;;;;;;;94.75;79.50;;;;;;;;5094008;28;8782;-74
2022/01/13 01:54:48;;;;;;;;;90.33;73.00;;;;;;;;5092914;28;8848;-74
2022/01/13 01:57:14;;;;;;;;;99.50;86.75;;;;;;;;5092495;28;8810;-74
2022/01/13 01:59:41;;;;;;;;;96.75;82.25;;;;;;;;5091586;28;8921;-74
2022/01/13 02:02:08;;;;;;;;;99.00;83.60;;;;;;;;5094052;28;8794;-74
2022/01/13 02:04:33;;;;;;;;;92.20;73.80;;;;;;;;5093683;28;8863;-74
2022/01/13 02:07:02;;;;;;;;;99.50;87.75;;;;;;;;5092207;28;8841;-74
2022/01/13 02:09:28;;;;;;;;;96.00;80.00;;;;;;;;5093396;28;8798;-74
2022/01/13 02:11:57;;;;;;;;;97.67;85.00;;;;;;;;5093501;28;8933;-74
2022/01/13 02:17:04;;;;;;;;;97.60;79.80;;;;;;;;5093351;28;9728;-74
2022/01/13 02:19:30;;;;;;;;;99.00;87.75;;;;;;;;5090002;28;8862;-74
2022/01/13 02:21:56;;;;;;;;;101.25;89.75;;;;;;;;5093363;28;8714;-74
2022/01/13 02:24:22;;;;;;;;;105.00;96.33;;;;;;;;5091997;28;9565;-74
2022/01/13 02:26:47;;;;;;;;;96.75;82.25;;;;;;;;5092067;28;9660;-74
2022/01/13 02:29:12;;;;;;;;;97.50;85.75;;;;;;;;5093095;28;9514;-74
2022/01/13 02:31:37;;;;;;;;;101.75;91.25;;;;;;;;5093517;28;8818;-74
2022/01/13 02:34:03;;;;;;;;;102.50;93.75;;;;;;;;5092467;28;8851;-75
2022/01/13 02:36:30;;;;;;;;;113.00;110.67;;;;;;;;5092868;28;9526;-75
2022/01/13 02:38:56;;;;;;;;;104.60;93.80;;;;;;;;5091840;28;8813;-75
2022/01/13 02:41:25;;;;;;;;;101.50;90.00;;;;;;;;5092267;28;8810;-75
2022/01/13 02:43:52;;;;;;;;;93.75;77.75;;;;;;;;5093179;28;8782;-75
2022/01/13 02:49:07;;;;;;;;;93.75;77.50;;;;;;;;5093155;28;8862;-75
2022/01/13 02:51:32;;;;;;;;;98.20;86.20;;;;;;;;5093173;28;10128;-75
2022/01/13 02:53:58;;;;;;;;;99.00;86.50;;;;;;;;5092858;28;8825;-75
2022/01/13 02:56:23;;;;;;;;;94.75;77.50;;;;;;;;5092824;28;11035;-75
2022/01/13 02:58:49;;;;;;;;;91.25;73.50;;;;;;;;5092827;28;8875;-75
2022/01/13 03:01:14;;;;;;;;;97.80;85.80;;;;;;;;5091715;28;9202;-75
2022/01/13 03:03:41;;;;;;;;;105.25;96.50;;;;;;;;5092918;28;8828;-75
2022/01/13 03:06:10;;;;;;;;;90.40;76.40;;;;;;;;5093092;28;8798;-75
2022/01/13 03:08:36;;;;;;;;;85.00;69.50;;;;;;;;5096838;28;8790;-75
2022/01/13 03:11:02;;;;;;;;;94.60;78.20;;;;;;;;5096728;28;8883;-75
2022/01/13 03:13:29;;;;;;;;;89.75;73.00;;;;;;;;5095216;28;8840;-75
2022/01/13 03:15:54;;;;;;;;;86.20;70.00;;;;;;;;5095821;28;8979;-75
2022/01/13 03:18:19;;;;;;;;;93.60;79.40;;;;;;;;5095328;28;8802;-75
2022/01/13 03:20:45;;;;;;;;;91.25;75.25;;;;;;;;5096105;28;8921;-75
2022/01/13 03:23:15;;;;;;;;;80.50;65.50;;;;;;;;5096714;28;8793;-75
2022/01/13 03:25:43;;;;;;;;;85.60;68.60;;;;;;;;5095848;28;9829;-74
2022/01/13 03:28:14;;;;;;;;;81.25;67.25;;;;;;;;5096737;28;8801;-75
2022/01/13 03:30:39;;;;;;;;;87.75;70.25;;;;;;;;5095993;28;8789;-75
2022/01/13 03:33:06;;;;;;;;;81.50;65.00;;;;;;;;5095622;28;8813;-75
2022/01/13 03:35:31;;;;;;;;;72.75;61.25;;;;;;;;5096733;28;8848;-75
2022/01/13 03:37:58;;;;;;;;;63.67;54.67;;;;;;;;5095883;28;8838;-75
2022/01/13 03:40:23;;;;;;;;;70.50;60.00;;;;;;;;5096701;28;8778;-75
2022/01/13 03:42:52;;;;;;;;;65.75;55.50;;;;;;;;5093574;28;10511;-75
2022/01/13 03:45:18;;;;;;;;;72.60;59.80;;;;;;;;5096081;28;8814;-75
2022/01/13 03:47:43;;;;;;;;;89.25;70.50;;;;;;;;5094533;28;8906;-75
2022/01/13 03:50:08;;;;;;;;;78.67;64.00;;;;;;;;5096372;28;9624;-75
2022/01/13 03:52:34;;;;;;;;;80.00;67.00;;;;;;;;5094664;28;8834;-75
2022/01/13 03:55:18;;;;;;;;;85.25;69.25;;;;;;;;5095445;28;8934;-75
2022/01/13 03:57:49;;;;;;;;;84.20;68.00;;;;;;;;5095614;28;8809;-75
2022/01/13 04:00:40;;;;;;;;;81.80;66.80;;;;;;;;5096022;28;8782;-75
2022/01/13 04:03:05;;;;;;;;;78.00;65.00;;;;;;;;5095545;28;9688;-75
2022/01/13 04:05:30;;;;;;;;;86.00;70.67;;;;;;;;5096002;28;8832;-75
2022/01/13 04:07:56;;;;;;;;;79.50;66.00;;;;;;;;5095333;28;8794;-76
2022/01/13 04:10:40;;;;;;;;;74.33;61.00;;;;;;;;5096074;28;8829;-75
2022/01/13 04:13:11;;;;;;;;;75.40;62.60;;;;;;;;5094723;28;9755;-75
2022/01/13 04:15:46;;;;;;;;;85.00;69.75;;;;;;;;5095830;28;8817;-75
2022/01/13 04:18:11;;;;;;;;;90.60;73.20;;;;;;;;5094866;28;8782;-75
2022/01/13 04:20:36;;;;;;;;;85.00;67.67;;;;;;;;5095706;28;8846;-75
2022/01/13 04:23:01;;;;;;;;;86.00;69.00;;;;;;;;5094444;28;8829;-75
2022/01/13 04:25:27;;;;;;;;;89.33;72.00;;;;;;;;5095829;28;8852;-75
2022/01/13 04:28:00;;;;;;;;;86.00;71.00;;;;;;;;5095073;28;8830;-76
2022/01/13 04:30:35;;;;;;;;;88.80;72.00;;;;;;;;5095491;27;8790;-75
2022/01/13 04:33:01;;;;;;;;;80.60;66.00;;;;;;;;5094384;28;8855;-75
2022/01/13 04:35:26;;;;;;;;;86.50;70.25;;;;;;;;5093849;28;8818;-75
2022/01/13 04:37:51;;;;;;;;;85.00;70.25;;;;;;;;5094075;28;11498;-75
2022/01/13 04:40:17;;;;;;;;;82.33;67.67;;;;;;;;5095684;28;8819;-75
2022/01/13 04:42:43;;;;;;;;;89.00;71.33;;;;;;;;5095066;28;8830;-75
2022/01/13 04:45:09;;;;;;;;;85.25;70.25;;;;;;;;5093460;28;8833;-75
2022/01/13 04:47:34;;;;;;;;;80.40;67.00;;;;;;;;5093965;28;8813;-75
2022/01/13 04:49:59;;;;;;;;;88.25;71.25;;;;;;;;5092804;28;8832;-75
2022/01/13 04:52:25;;;;;;;;;93.00;74.25;;;;;;;;5095082;28;8826;-75
2022/01/13 04:54:50;;;;;;;;;76.25;63.50;;;;;;;;5094755;28;8822;-75
2022/01/13 04:57:17;;;;;;;;;84.50;69.75;;;;;;;;5095130;28;8837;-75
2022/01/13 04:59:43;;;;;;;;;84.75;70.25;;;;;;;;5094183;28;8817;-75
2022/01/13 05:02:08;;;;;;;;;87.60;70.80;;;;;;;;5093440;28;10664;-75
2022/01/13 05:04:33;;;;;;;;;64.50;53.75;;;;;;;;5094644;28;8860;-75
2022/01/13 05:06:58;;;;;;;;;80.75;66.75;;;;;;;;5094552;28;8813;-75
2022/01/13 05:09:24;;;;;;;;;57.75;51.00;;;;;;;;5094939;28;8825;-75
2022/01/13 05:11:49;;;;;;;;;43.67;41.67;;;;;;;;5094509;28;9522;-75
2022/01/13 05:14:14;;;;;;;;;73.25;61.50;;;;;;;;5092898;28;8895;-75
2022/01/13 05:19:23;;;;;;;;;65.20;56.00;;;;;;;;5094576;28;8856;-75
2022/01/13 05:24:23;;;;;;;;;56.25;49.25;;;;;;;;5094336;28;8810;-75
2022/01/13 05:26:48;;;;;;;;;83.00;69.25;;;;;;;;5093766;28;8814;-76
2022/01/13 05:29:18;;;;;;;;;73.67;60.67;;;;;;;;5092470;28;8858;-76
2022/01/13 05:31:44;;;;;;;;;65.00;54.75;;;;;;;;5078345;28;8810;-75
2022/01/13 05:34:09;;;;;;;;;74.75;61.75;;;;;;;;5093649;28;8908;-75
2022/01/13 05:36:35;;;;;;;;;62.67;53.33;;;;;;;;5094022;28;9537;-75
2022/01/13 05:39:00;;;;;;;;;76.50;63.25;;;;;;;;5092239;28;11665;-75
2022/01/13 05:41:25;;;;;;;;;84.25;67.00;;;;;;;;5094236;28;10099;-75
2022/01/13 05:43:51;;;;;;;;;85.25;70.25;;;;;;;;5093850;28;8837;-75
2022/01/13 05:46:16;;;;;;;;;94.67;80.67;;;;;;;;5092807;28;8825;-75
2022/01/13 05:48:41;;;;;;;;;92.25;73.25;;;;;;;;5093664;28;8821;-75
2022/01/13 05:51:07;;;;;;;;;84.25;69.75;;;;;;;;5093893;28;9216;-75
2022/01/13 05:53:32;;;;;;;;;89.50;73.25;;;;;;;;5093321;28;8890;-75
2022/01/13 05:55:57;;;;;;;;;89.75;73.50;;;;;;;;5084883;28;9544;-74
2022/01/13 05:58:23;;;;;;;;;100.67;85.67;;;;;;;;5093610;28;8828;-75
2022/01/13 06:00:48;;;;;;;;;92.25;74.25;;;;;;;;5091823;28;8806;-75
2022/01/13 06:03:13;;;;;;;;;86.25;71.00;;;;;;;;5091633;28;8814;-75
2022/01/13 06:05:39;;;;;;;;;87.67;70.67;;;;;;;;5093288;28;8797;-75
2022/01/13 06:08:04;;;;;;;;;94.00;76.75;;;;;;;;5091807;28;8890;-75
2022/01/13 06:10:30;;;;;;;;;87.50;71.50;;;;;;;;5092258;28;8818;-75
2022/01/13 06:12:55;;;;;;;;;89.75;73.00;;;;;;;;5091665;28;8848;-75
2022/01/13 06:15:22;;;;;;;;;85.75;68.75;;;;;;;;5091882;28;8834;-75
2022/01/13 06:17:49;;;;;;;;;82.40;68.20;;;;;;;;5093590;28;8810;-75
2022/01/13 06:20:15;;;;;;;;;82.00;68.20;;;;;;;;5086363;28;8855;-75
2022/01/13 06:22:41;;;;;;;;;70.25;58.00;;;;;;;;5093116;28;8810;-75
2022/01/13 06:25:09;;;;;;;;;68.00;58.00;;;;;;;;5093637;28;8754;-75
2022/01/13 06:27:34;;;;;;;;;69.80;59.40;;;;;;;;5093703;28;8813;-74
2022/01/13 06:29:59;;;;;;;;;67.25;54.75;;;;;;;;5089968;28;8888;-75
2022/01/13 06:32:25;;;;;;;;;84.75;69.50;;;;;;;;5091703;28;8830;-75
2022/01/13 06:34:51;;;;;;;;;69.25;57.50;;;;;;;;5091380;28;8814;-74
2022/01/13 06:37:17;;;;;;;;;81.80;67.20;;;;;;;;5092234;28;8904;-74
2022/01/13 06:39:42;;;;;;;;;78.60;64.80;;;;;;;;5087961;28;8981;-75
2022/01/13 06:42:08;;;;;;;;;70.75;57.25;;;;;;;;5084235;28;8839;-74
2022/01/13 06:44:33;;;;;;;;;87.50;72.00;;;;;;;;5094804;28;9581;-75
2022/01/13 06:46:58;;;;;;;;;81.33;67.33;;;;;;;;5094748;28;8976;-75
2022/01/13 06:49:24;;;;;;;;;72.00;59.00;;;;;;;;5097260;28;8936;-75
2022/01/13 06:51:49;;;;;;;;;86.00;66.25;;;;;;;;5095944;28;8818;-75
2022/01/13 06:54:14;;;;;;;;;77.25;63.00;;;;;;;;5096330;28;8932;-73
2022/01/13 06:56:40;;;;;;;;;76.75;64.50;;;;;;;;5095517;28;8813;-73
2022/01/13 06:59:10;;;;;;;;;74.75;61.00;;;;;;;;5096721;28;8834;-74
2022/01/13 07:01:36;;;;;;;;;86.40;71.60;;;;;;;;5096108;28;8878;-75
2022/01/13 07:04:02;;;;;;;;;79.40;65.00;;;;;;;;5095620;28;8933;-75
2022/01/13 07:06:27;;;;;;;;;79.00;65.50;;;;;;;;5096400;28;8820;-76
2022/01/13 07:08:52;;;;;;;;;77.33;61.33;;;;;;;;5095655;28;8848;-76
2022/01/13 07:11:18;;;;;;;;;82.67;69.33;;;;;;;;5096482;28;8944;-76
2022/01/13 07:13:43;;;;;;;;;72.33;59.67;;;;;;;;5094197;28;8922;-76
2022/01/13 07:16:08;;;;;;;;;82.50;68.75;;;;;;;;5095973;28;8814;-75
2022/01/13 07:18:38;;;;;;;;;82.50;68.50;;;;;;;;5096447;28;9013;-76
2022/01/13 07:21:04;;;;;;;;;84.60;69.20;;;;;;;;5095899;28;8866;-76
2022/01/13 07:23:29;;;;;;;;;82.00;67.75;;;;;;;;5096330;28;8814;-76
2022/01/13 07:25:55;;;;;;;;;72.00;58.25;;;;;;;;5095639;28;11531;-76
2022/01/13 07:28:20;;;;;;;;;82.33;66.67;;;;;;;;5096501;28;8829;-75
2022/01/13 07:30:45;;;;;;;;;72.50;60.50;;;;;;;;5093673;28;8856;-76
2022/01/13 07:33:11;;;;;;;;;78.00;63.50;;;;;;;;5082573;28;8853;-76
2022/01/13 07:35:36;;;;;;;;;74.75;61.75;;;;;;;;5096114;28;8809;-75
2022/01/13 07:38:01;;;;;;;;;77.25;64.00;;;;;;;;5095691;28;8912;-76
2022/01/13 07:40:27;;;;;;;;;75.75;62.25;;;;;;;;5096243;28;9661;-76
2022/01/13 07:42:52;;;;;;;;;82.00;67.50;;;;;;;;5095935;28;8860;-76
2022/01/13 07:45:18;;;;;;;;;82.25;68.00;;;;;;;;5095656;28;8996;-76
2022/01/13 07:47:43;;;;;;;;;86.50;70.25;;;;;;;;5095036;28;9575;-75
2022/01/13 07:50:10;;;;;;;;;90.25;72.75;;;;;;;;5096046;28;8830;-76
2022/01/13 07:52:36;;;;;;;;;72.75;61.25;;;;;;;;5095275;28;8809;-76
2022/01/13 07:55:01;;;;;;;;;61.25;51.00;;;;;;;;5093770;28;8837;-76
2022/01/13 07:57:26;;;;;;;;;82.00;66.00;;;;;;;;5085616;28;8817;-76
2022/01/13 07:59:56;;;;;;;;;88.67;72.33;;;;;;;;5093295;28;8830;-76
2022/01/13 08:02:22;;;;;;;;;78.20;64.00;;;;;;;;5095836;28;8808;-75
2022/01/13 08:04:49;;;;;;;;;78.00;63.67;;;;;;;;5093939;28;8794;-76
2022/01/13 08:07:14;;;;;;;;;79.00;65.25;;;;;;;;5093829;28;8840;-76
2022/01/13 08:09:40;;;;;;;;;77.00;62.00;;;;;;;;5088895;28;8956;-75
2022/01/13 08:12:05;;;;;;;;;82.50;67.75;;;;;;;;5095323;28;9530;-75
2022/01/13 08:14:31;;;;;;;;;79.00;63.50;;;;;;;;5094457;28;8825;-75
2022/01/13 08:16:59;;;;;;;;;83.50;66.75;;;;;;;;5093509;28;8801;-75
2022/01/13 08:22:09;;;;;;;;;83.80;69.20;;;;;;;;5093633;28;8782;-75
2022/01/13 08:24:34;;;;;;;;;77.00;64.33;;;;;;;;5095448;28;8829;-75
2022/01/13 08:26:59;;;;;;;;;79.00;65.25;;;;;;;;5094019;28;8821;-75
2022/01/13 08:29:25;;;;;;;;;86.50;70.00;;;;;;;;5094857;28;8809;-75
2022/01/13 08:31:50;;;;;;;;;77.67;62.33;;;;;;;;5094719;28;8825;-75
2022/01/13 08:34:16;;;;;;;;;89.00;71.00;;;;;;;;5093402;28;8973;-75
2022/01/13 08:36:42;;;;;;;;;79.75;65.25;;;;;;;;5093872;28;8801;-75
2022/01/13 08:39:07;;;;;;;;;86.80;71.00;;;;;;;;5094178;28;11582;-75
2022/01/13 08:41:33;;;;;;;;;79.75;64.75;;;;;;;;5095573;28;8818;-75
2022/01/13 08:43:58;;;;;;;;;83.00;67.50;;;;;;;;5093010;28;8847;-75
2022/01/13 08:46:25;;;;;;;;;77.50;63.75;;;;;;;;5092490;28;8844;-75
2022/01/13 08:48:50;;;;;;;;;84.40;69.60;;;;;;;;5085619;28;8804;-75
2022/01/13 08:51:18;;;;;;;;;81.75;67.25;;;;;;;;5084531;28;8813;-75
2022/01/13 08:53:43;;;;;;;;;90.00;71.75;;;;;;;;5092168;28;8774;-74
2022/01/13 08:56:09;;;;;;;;;86.25;70.75;;;;;;;;5094156;28;9609;-75
2022/01/13 08:58:35;;;;;;;;;93.75;77.50;;;;;;;;5093075;28;8892;-75
2022/01/13 09:01:00;;;;;;;;;96.50;81.00;;;;;;;;5094199;28;8818;-75
2022/01/13 09:03:25;;;;;;;;;87.25;69.50;;;;;;;;5094626;28;8822;-75
2022/01/13 09:05:51;;;;;;;;;88.75;71.00;;;;;;;;5087323;28;8926;-76
2022/01/13 09:08:16;;;;;;;;;91.75;73.50;;;;;;;;5090785;28;8789;-76
2022/01/13 09:10:42;;;;;;;;;85.75;70.00;;;;;;;;5094327;28;8838;-76
2022/01/13 09:13:11;;;;;;;;;86.60;70.80;;;;;;;;5088839;28;8805;-75
2022/01/13 09:15:39;;;;;;;;;86.75;70.00;;;;;;;;5084505;28;8805;-75
2022/01/13 09:18:16;;;;;;;;;94.00;76.20;;;;;;;;5092774;28;8782;-76
2022/01/13 09:20:42;;;;;;;;;85.80;69.20;;;;;;;;5091304;28;8793;-75
2022/01/13 09:23:08;;;;;;;;;83.00;67.50;;;;;;;;5092697;28;8898;-75
2022/01/13 09:25:34;;;;;;;;;86.20;68.80;;;;;;;;5090339;28;8794;-76
2022/01/13 09:28:00;;;;;;;;;83.75;67.25;;;;;;;;5092254;28;8821;-75
2022/01/13 09:30:25;;;;;;;;;82.00;67.20;;;;;;;;5090324;28;8902;-75
2022/01/13 09:32:51;;;;;;;;;82.25;67.50;;;;;;;;5093663;28;8900;-75
2022/01/13 09:35:16;;;;;;;;;76.33;62.00;;;;;;;;5083241;28;9160;-75
2022/01/13 09:37:42;;;;;;;;;79.50;64.50;;;;;;;;5082727;28;8850;-75
2022/01/13 09:40:08;;;;;;;;;81.00;66.50;;;;;;;;5091997;28;9633;-75
2022/01/13 09:42:34;;;;;;;;;78.33;63.33;;;;;;;;5093245;28;8954;-75
2022/01/13 09:45:00;;;;;;;;;83.50;67.00;;;;;;;;5092356;28;8930;-75
2022/01/13 09:47:26;;;;;;;;;84.33;69.00;;;;;;;;5090605;28;8944;-75
2022/01/13 09:49:51;;;;;;;;;84.50;67.00;;;;;;;;5092551;28;8888;-75
2022/01/13 09:52:19;;;;;;;;;99.75;86.25;;;;;;;;5093098;28;8813;-75
2022/01/13 09:54:44;;;;;;;;;84.00;67.50;;;;;;;;5090297;28;11594;-75
2022/01/13 09:57:10;;;;;;;;;84.25;69.00;;;;;;;;5091950;28;11585;-75
2022/01/13 09:59:35;;;;;;;;;79.25;63.75;;;;;;;;5091868;28;8814;-76
2022/01/13 10:02:00;;;;;;;;;77.00;62.50;;;;;;;;5093330;28;8825;-76
2022/01/13 10:04:42;;;;;;;;;72.75;61.25;;;;;;;;5093304;28;8817;-76
2022/01/13 10:07:08;;;;;;;;;84.80;67.60;;;;;;;;5083567;28;8747;-75
2022/01/13 10:09:51;;;;;;;;;69.75;58.75;;;;;;;;5090593;28;9550;-75
2022/01/13 10:12:22;;;;;;;;;70.33;57.67;;;;;;;;5091035;28;8841;-75
2022/01/13 10:17:22;;;;;;;;;65.75;56.00;;;;;;;;5092066;28;8786;-75
2022/01/13 10:19:49;;;;;;;;;85.75;70.50;;;;;;;;5093262;28;8829;-75
2022/01/13 10:22:19;;;;;;;;;75.00;60.40;;;;;;;;5090974;28;8911;-75
2022/01/13 10:24:46;;;;;;;;;76.60;62.40;;;;;;;;5092662;28;9738;-75
2022/01/13 10:27:15;;;;;;;;;74.40;61.20;;;;;;;;5093413;28;8793;-75
2022/01/13 10:29:44;;;;;;;;;85.80;69.80;;;;;;;;5082839;28;9656;-75
2022/01/13 10:32:10;;;;;;;;;83.50;67.25;;;;;;;;5081663;28;8824;-75
2022/01/13 10:34:37;;;;;;;;;85.75;70.25;;;;;;;;5092562;28;8802;-75
2022/01/13 10:37:06;;;;;;;;;86.50;70.25;;;;;;;;5093185;28;8794;-75
2022/01/13 10:39:43;;;;;;;;;95.80;80.00;;;;;;;;5092190;28;9280;-75
2022/01/13 10:42:43;;;;;;;;;86.67;71.33;;;;;;;;5081619;28;8948;-75
2022/01/13 10:44:57;;;;;;;;;89.25;70.50;;;;;;;;5092365;28;12215;-75
2022/01/13 10:47:23;;;;;;;;;85.50;68.75;;;;;;;;5082111;28;8854;-76
2022/01/13 10:49:50;;;;;;;;;80.67;65.33;;;;;;;;5087674;28;8814;-75
2022/01/13 10:52:26;;;;;;;;;83.25;67.00;;;;;;;;5090974;28;10638;-75
2022/01/13 10:54:59;;;;;;;;;77.75;63.25;;;;;;;;5092616;28;8936;-75
2022/01/13 10:57:25;;;;;;;;;89.75;73.00;;;;;;;;5092247;28;8806;-75
2022/01/13 10:59:51;;;;;;;;;79.33;65.33;;;;;;;;5092183;28;8808;-75
2022/01/13 11:02:18;;;;;;;;;83.00;67.00;;;;;;;;5092687;28;8809;-76
2022/01/13 11:04:43;;;;;;;;;74.50;62.25;;;;;;;;5092581;28;8790;-75
2022/01/13 11:07:27;;;;;;;;;73.00;59.33;;;;;;;;5087173;28;8827;-75
2022/01/13 11:10:00;;;;;;;;;74.00;60.00;;;;;;;;5092795;28;8794;-75
2022/01/13 11:12:35;;;;;;;;;73.75;61.50;;;;;;;;5091433;28;8911;-75
2022/01/13 11:15:04;;;;;;;;;71.25;59.25;;;;;;;;5092403;28;8794;-75
2022/01/13 11:17:30;;;;;;;;;65.50;53.50;;;;;;;;5090031;28;8809;-75
2022/01/13 11:19:56;;;;;;;;;81.75;65.25;;;;;;;;5083960;28;8816;-76
2022/01/13 11:22:21;;;;;;;;;82.50;65.50;;;;;;;;5092241;28;8860;-75
2022/01/13 11:24:47;;;;;;;;;82.00;66.50;;;;;;;;5090458;28;8990;-75
2022/01/13 11:27:13;;;;;;;;;77.00;61.75;;;;;;;;5092805;28;8814;-75
2022/01/13 11:29:39;;;;;;;;;71.75;59.25;;;;;;;;5082189;28;8765;-76
2022/01/13 11:32:07;;;;;;;;;83.25;68.00;;;;;;;;5091783;28;9773;-75
2022/01/13 11:34:32;;;;;;;;;71.75;59.75;;;;;;;;5096236;28;8818;-75
2022/01/13 11:36:58;;;;;;;;;80.33;65.67;;;;;;;;5094659;28;8940;-75
2022/01/13 11:39:40;;;;;;;;;81.00;65.00;;;;;;;;5095851;28;8790;-75
2022/01/13 11:42:07;;;;;;;;;61.00;51.75;;;;;;;;5096063;28;8786;-75
2022/01/13 11:44:32;;;;;;;;;84.00;67.00;;;;;;;;5095391;28;8781;-74
2022/01/13 11:46:57;;;;;;;;;80.50;65.75;;;;;;;;5094779;28;10044;-74
2022/01/13 11:49:58;;;;;;;;;84.50;66.25;;;;;;;;5096173;28;9525;-75
2022/01/13 11:52:16;;;;;;;;;72.00;60.00;;;;;;;;5095145;28;8910;-75
2022/01/13 11:54:43;;;;;;;;;77.00;62.33;;;;;;;;5093084;28;8985;-75
2022/01/13 11:57:14;;;;;;;;;73.00;59.25;;;;;;;;5095253;28;8805;-74
2022/01/13 11:59:47;;;;;;;;;79.00;65.25;;;;;;;;5095034;28;8813;-74
2022/01/13 12:02:23;;;;;;;;;74.25;58.50;;;;;;;;5095366;28;8794;-74
2022/01/13 12:05:05;;;;;;;;;83.75;68.50;;;;;;;;5091744;28;8876;-74
2022/01/13 12:07:38;;;;;;;;;71.00;56.50;;;;;;;;5091746;28;11141;-74
2022/01/13 12:10:05;;;;;;;;;85.25;68.75;;;;;;;;5094085;28;8951;-74
2022/01/13 12:12:32;;;;;;;;;84.50;69.00;;;;;;;;5095228;28;11563;-74
2022/01/13 12:15:16;;;;;;;;;84.40;68.80;;;;;;;;5092371;28;8869;-75
2022/01/13 12:17:48;;;;;;;;;80.25;66.50;;;;;;;;5090202;28;9647;-74
2022/01/13 12:20:25;;;;;;;;;88.67;70.67;;;;;;;;5084389;28;9768;-74
2022/01/13 12:23:36;;;;;;;;;75.50;62.75;;;;;;;;5094860;28;8730;-74
2022/01/13 12:25:36;;;;;;;;;76.00;61.00;;;;;;;;5080901;28;8754;-74
2022/01/13 12:28:16;;;;;;;;;75.25;61.25;;;;;;;;5094423;28;9549;-74
2022/01/13 12:30:42;;;;;;;;;80.50;64.25;;;;;;;;5094293;28;8798;-73
2022/01/13 12:33:09;;;;;;;;;66.25;55.25;;;;;;;;5096631;28;8855;-74
2022/01/13 12:35:34;;;;;;;;;84.75;69.00;;;;;;;;5093642;28;8856;-74
2022/01/13 12:38:05;;;;;;;;;69.00;55.50;;;;;;;;5093838;28;8810;-74
2022/01/13 12:40:34;;;;;;;;;76.00;61.75;;;;;;;;5093991;28;8841;-74
2022/01/13 12:43:11;;;;;;;;;75.50;61.75;;;;;;;;5094119;28;8959;-74
2022/01/13 12:45:36;;;;;;;;;81.50;65.25;;;;;;;;5092620;28;11555;-74
2022/01/13 12:48:04;;;;;;;;;74.33;61.33;;;;;;;;5092719;28;8891;-75
2022/01/13 12:50:40;;;;;;;;;88.50;68.75;;;;;;;;5093796;28;9778;-74
2022/01/13 12:53:07;;;;;;;;;82.25;67.50;;;;;;;;5079363;28;8784;-74
2022/01/13 12:55:33;;;;;;;;;74.75;62.25;;;;;;;;5091558;28;8832;-75
2022/01/13 12:57:59;;;;;;;;;81.75;65.50;;;;;;;;5094202;28;9691;-74
2022/01/13 13:00:25;;;;;;;;;71.25;59.00;;;;;;;;5094078;28;8814;-74
2022/01/13 13:02:51;;;;;;;;;81.00;65.25;;;;;;;;5092699;28;8881;-75
2022/01/13 13:05:29;;;;;;;;;76.67;63.67;;;;;;;;5089707;28;8816;-73
2022/01/13 13:07:55;;;;;;;;;73.75;60.75;;;;;;;;5093640;28;11526;-75
2022/01/13 13:10:20;;;;;;;;;87.50;70.00;;;;;;;;5089984;28;8833;-75
2022/01/13 13:12:52;;;;;;;;;89.00;72.50;;;;;;;;5093015;28;8847;-75
2022/01/13 13:17:45;;;;;;;;;73.75;59.50;;;;;;;;5092852;28;8826;-75
2022/01/13 13:20:30;;;;;;;;;62.25;50.50;;;;;;;;5090467;28;8822;-75
2022/01/13 13:22:58;;;;;;;;;79.50;63.75;;;;;;;;5092860;28;8801;-75
2022/01/13 13:25:26;;;;;;;;;71.25;56.50;;;;;;;;5094187;28;8826;-74
2022/01/13 13:27:52;;;;;;;;;85.75;68.00;;;;;;;;5091169;28;8825;-75
2022/01/13 13:30:17;;;;;;;;;86.67;70.00;;;;;;;;5088781;28;8935;-75
2022/01/13 13:32:52;;;;;;;;;87.75;69.00;;;;;;;;5091913;28;8829;-75
2022/01/13 13:35:18;;;;;;;;;70.50;58.75;;;;;;;;5089729;28;8806;-75
2022/01/13 13:37:45;;;;;;;;;84.00;67.50;;;;;;;;5091207;28;8806;-75
2022/01/13 13:40:30;;;;;;;;;80.25;64.50;;;;;;;;5093525;28;8829;-75
2022/01/13 13:43:06;;;;;;;;;78.50;63.75;;;;;;;;5091725;28;8802;-75
2022/01/13 13:45:32;;;;;;;;;82.75;67.00;;;;;;;;5092311;28;8982;-75
2022/01/13 13:47:59;;;;;;;;;79.00;62.75;;;;;;;;5093334;28;8844;-75
2022/01/13 13:50:24;;;;;;;;;77.25;61.25;;;;;;;;5091443;28;8771;-75
2022/01/13 13:53:11;;;;;;;;;89.00;70.33;;;;;;;;5088866;28;9568;-75
2022/01/13 13:55:37;;;;;;;;;79.25;64.25;;;;;;;;5090060;28;8822;-74
2022/01/13 13:58:03;;;;;;;;;71.50;59.00;;;;;;;;5087120;28;8826;-75
2022/01/13 14:00:28;;;;;;;;;86.00;69.50;;;;;;;;5092952;28;8925;-75
2022/01/13 14:02:56;;;;;;;;;83.00;67.25;;;;;;;;5088718;28;9570;-75
2022/01/13 14:05:26;;;;;;;;;77.50;63.00;;;;;;;;5094648;28;8821;-75
2022/01/13 14:07:52;;;;;;;;;70.25;56.75;;;;;;;;5092735;28;8800;-75
2022/01/13 14:10:23;;;;;;;;;82.75;66.00;;;;;;;;5091583;28;8810;-76
2022/01/13 14:12:52;;;;;;;;;83.25;64.75;;;;;;;;5093220;28;8824;-75
2022/01/13 14:15:37;;;;;;;;;73.75;59.75;;;;;;;;5091334;28;10072;-75
2022/01/13 14:18:08;;;;;;;;;71.25;58.75;;;;;;;;5092957;28;11302;-75
2022/01/13 14:20:35;;;;;;;;;74.00;60.25;;;;;;;;5090608;28;9711;-75
2022/01/13 14:23:02;;;;;;;;;70.50;57.25;;;;;;;;5086025;28;8841;-75
2022/01/13 14:25:35;;;;;;;;;75.75;61.75;;;;;;;;5093779;28;8918;-75
2022/01/13 14:28:05;;;;;;;;;85.25;67.75;;;;;;;;5090584;28;8914;-75
2022/01/13 14:30:32;;;;;;;;;78.00;64.50;;;;;;;;5091513;28;9920;-75
2022/01/13 14:33:12;;;;;;;;;78.75;64.25;;;;;;;;5092387;28;8838;-75
2022/01/13 14:35:38;;;;;;;;;87.25;68.50;;;;;;;;5097124;28;9636;-75
2022/01/13 14:38:10;;;;;;;;;84.00;67.00;;;;;;;;5101176;28;8846;-75
2022/01/13 14:40:48;;;;;;;;;82.50;67.00;;;;;;;;5092810;28;8786;-75
2022/01/13 14:43:19;;;;;;;;;87.67;68.33;;;;;;;;5093681;28;8817;-75
2022/01/13 14:45:46;;;;;;;;;96.25;76.25;;;;;;;;5091757;28;8883;-75
2022/01/13 14:48:12;;;;;;;;;71.00;56.50;;;;;;;;5092630;28;8824;-75
2022/01/13 14:50:37;;;;;;;;;72.67;58.67;;;;;;;;5089807;28;8812;-75
2022/01/13 14:53:02;;;;;;;;;75.00;61.00;;;;;;;;5093593;28;8833;-75
2022/01/13 14:55:28;;;;;;;;;66.67;52.67;;;;;;;;5093048;28;8837;-75
2022/01/13 14:57:55;;;;;;;;;75.00;62.25;;;;;;;;5092538;28;8825;-75